sensor_id;sensor_type;location;lat;lon;timestamp;temperature;humidity
35463;DHT22;21578;47.892;9.970;2022-10-16T00:03:01;13.00;96.60
35463;DHT22;21578;47.892;9.970;2022-10-16T00:07:48;13.00;96.60
35463;DHT22;21578;47.892;9.970;2022-10-16T00:12:35;12.90;96.60
35463;DHT22;21578;47.892;9.970;2022-10-16T00:17:24;12.80;96.60
35463;DHT22;21578;47.892;9.970;2022-10-16T00:22:11;12.80;96.60
35463;DHT22;21578;47.892;9.970;2022-10-16T00:26:58;12.80;96.60
35463;DHT22;21578;47.892;9.970;2022-10-16T00:31:45;12.70;96.60
35463;DHT22;21578;47.892;9.970;2022-10-16T00:36:33;12.70;96.60
35463;DHT22;21578;47.892;9.970;2022-10-16T00:41:21;12.70;96.60
35463;DHT22;21578;47.892;9.970;2022-10-16T00:46:15;12.70;96.60
35463;DHT22;21578;47.892;9.970;2022-10-16T00:51:02;12.70;96.60
35463;DHT22;21578;47.892;9.970;2022-10-16T00:55:52;12.70;96.60
35463;DHT22;21578;47.892;9.970;2022-10-16T01:00:39;12.60;96.60
35463;DHT22;21578;47.892;9.970;2022-10-16T01:05:30;12.60;96.60
35463;DHT22;21578;47.892;9.970;2022-10-16T01:10:27;12.60;96.60
35463;DHT22;21578;47.892;9.970;2022-10-16T01:15:20;12.60;96.60
35463;DHT22;21578;47.892;9.970;2022-10-16T01:20:15;12.60;96.60
35463;DHT22;21578;47.892;9.970;2022-10-16T01:25:07;12.60;96.60
35463;DHT22;21578;47.892;9.970;2022-10-16T01:30:04;12.60;96.60
35463;DHT22;21578;47.892;9.970;2022-10-16T01:35:00;12.60;96.60
35463;DHT22;21578;47.892;9.970;2022-10-16T01:39:52;12.60;96.60
35463;DHT22;21578;47.892;9.970;2022-10-16T01:44:41;12.60;96.60
35463;DHT22;21578;47.892;9.970;2022-10-16T01:55:19;12.60;96.60
35463;DHT22;21578;47.892;9.970;2022-10-16T02:00:10;12.60;96.60
35463;DHT22;21578;47.892;9.970;2022-10-16T02:05:02;12.60;96.60
35463;DHT22;21578;47.892;9.970;2022-10-16T02:09:50;12.60;96.60
35463;DHT22;21578;47.892;9.970;2022-10-16T02:14:39;12.60;96.60
35463;DHT22;21578;47.892;9.970;2022-10-16T02:19:26;12.60;96.60
35463;DHT22;21578;47.892;9.970;2022-10-16T02:24:17;12.70;96.60
35463;DHT22;21578;47.892;9.970;2022-10-16T02:29:13;12.70;96.60
35463;DHT22;21578;47.892;9.970;2022-10-16T02:34:04;12.70;96.60
35463;DHT22;21578;47.892;9.970;2022-10-16T02:38:52;12.80;96.60
35463;DHT22;21578;47.892;9.970;2022-10-16T02:43:39;12.90;96.60
35463;DHT22;21578;47.892;9.970;2022-10-16T02:48:26;13.00;96.60
35463;DHT22;21578;47.892;9.970;2022-10-16T02:53:14;13.00;96.60
35463;DHT22;21578;47.892;9.970;2022-10-16T02:58:01;13.00;96.60
35463;DHT22;21578;47.892;9.970;2022-10-16T03:02:48;13.00;96.60
35463;DHT22;21578;47.892;9.970;2022-10-16T03:07:37;13.00;96.60
35463;DHT22;21578;47.892;9.970;2022-10-16T03:12:26;13.00;96.60
35463;DHT22;21578;47.892;9.970;2022-10-16T03:17:16;13.10;96.60
35463;DHT22;21578;47.892;9.970;2022-10-16T03:22:03;13.00;96.60
35463;DHT22;21578;47.892;9.970;2022-10-16T03:26:50;13.00;96.60
35463;DHT22;21578;47.892;9.970;2022-10-16T03:31:38;13.10;96.60
35463;DHT22;21578;47.892;9.970;2022-10-16T03:36:25;13.10;96.60
35463;DHT22;21578;47.892;9.970;2022-10-16T03:41:12;13.10;96.60
35463;DHT22;21578;47.892;9.970;2022-10-16T03:45:59;13.10;96.60
35463;DHT22;21578;47.892;9.970;2022-10-16T03:50:47;13.00;96.60
35463;DHT22;21578;47.892;9.970;2022-10-16T03:55:36;13.00;96.60
35463;DHT22;21578;47.892;9.970;2022-10-16T04:00:23;12.90;96.60
35463;DHT22;21578;47.892;9.970;2022-10-16T04:05:10;12.90;96.60
35463;DHT22;21578;47.892;9.970;2022-10-16T04:09:58;12.90;96.60
35463;DHT22;21578;47.892;9.970;2022-10-16T04:14:45;12.90;96.60
35463;DHT22;21578;47.892;9.970;2022-10-16T04:19:32;12.90;96.60
35463;DHT22;21578;47.892;9.970;2022-10-16T04:24:19;12.90;96.60
35463;DHT22;21578;47.892;9.970;2022-10-16T04:29:07;12.90;96.60
35463;DHT22;21578;47.892;9.970;2022-10-16T04:33:54;13.20;96.60
35463;DHT22;21578;47.892;9.970;2022-10-16T04:38:41;13.10;96.60
35463;DHT22;21578;47.892;9.970;2022-10-16T04:43:28;13.00;96.60
35463;DHT22;21578;47.892;9.970;2022-10-16T04:48:17;12.90;96.60
35463;DHT22;21578;47.892;9.970;2022-10-16T04:53:04;12.80;96.60
35463;DHT22;21578;47.892;9.970;2022-10-16T04:57:51;12.80;96.60
35463;DHT22;21578;47.892;9.970;2022-10-16T05:02:38;12.70;96.60
35463;DHT22;21578;47.892;9.970;2022-10-16T05:07:28;12.70;96.60
35463;DHT22;21578;47.892;9.970;2022-10-16T05:12:17;12.60;96.60
35463;DHT22;21578;47.892;9.970;2022-10-16T05:17:04;12.60;96.60
35463;DHT22;21578;47.892;9.970;2022-10-16T05:21:51;12.50;96.60
35463;DHT22;21578;47.892;9.970;2022-10-16T05:26:39;12.40;96.60
35463;DHT22;21578;47.892;9.970;2022-10-16T05:31:26;12.30;96.60
35463;DHT22;21578;47.892;9.970;2022-10-16T05:36:13;12.30;96.60
35463;DHT22;21578;47.892;9.970;2022-10-16T05:41:00;12.30;96.60
35463;DHT22;21578;47.892;9.970;2022-10-16T05:45:56;12.30;96.60
35463;DHT22;21578;47.892;9.970;2022-10-16T05:50:43;12.30;96.60
35463;DHT22;21578;47.892;9.970;2022-10-16T05:55:30;12.40;96.60
35463;DHT22;21578;47.892;9.970;2022-10-16T06:00:17;12.40;96.60
35463;DHT22;21578;47.892;9.970;2022-10-16T06:05:06;12.50;96.60
35463;DHT22;21578;47.892;9.970;2022-10-16T06:09:53;12.50;96.60
35463;DHT22;21578;47.892;9.970;2022-10-16T06:14:40;12.70;96.60
35463;DHT22;21578;47.892;9.970;2022-10-16T06:19:27;12.70;96.60
35463;DHT22;21578;47.892;9.970;2022-10-16T06:24:15;12.70;96.60
35463;DHT22;21578;47.892;9.970;2022-10-16T06:29:02;12.70;96.60
35463;DHT22;21578;47.892;9.970;2022-10-16T06:33:50;12.80;96.60
35463;DHT22;21578;47.892;9.970;2022-10-16T06:38:38;12.90;96.60
35463;DHT22;21578;47.892;9.970;2022-10-16T06:43:28;12.90;96.60
35463;DHT22;21578;47.892;9.970;2022-10-16T06:48:17;13.10;96.60
35463;DHT22;21578;47.892;9.970;2022-10-16T06:53:04;13.20;96.60
35463;DHT22;21578;47.892;9.970;2022-10-16T06:57:51;13.30;96.60
35463;DHT22;21578;47.892;9.970;2022-10-16T07:02:39;13.30;96.60
35463;DHT22;21578;47.892;9.970;2022-10-16T07:07:26;13.40;96.60
35463;DHT22;21578;47.892;9.970;2022-10-16T07:12:17;13.60;96.60
35463;DHT22;21578;47.892;9.970;2022-10-16T07:17:04;13.60;96.60
35463;DHT22;21578;47.892;9.970;2022-10-16T07:21:52;13.70;96.60
35463;DHT22;21578;47.892;9.970;2022-10-16T07:26:40;13.80;96.60
35463;DHT22;21578;47.892;9.970;2022-10-16T07:31:27;13.90;96.60
35463;DHT22;21578;47.892;9.970;2022-10-16T07:36:15;14.10;96.60
35463;DHT22;21578;47.892;9.970;2022-10-16T07:41:09;14.20;96.60
35463;DHT22;21578;47.892;9.970;2022-10-16T07:45:56;14.20;96.60
35463;DHT22;21578;47.892;9.970;2022-10-16T07:50:44;14.40;96.60
35463;DHT22;21578;47.892;9.970;2022-10-16T07:55:31;14.50;96.60
35463;DHT22;21578;47.892;9.970;2022-10-16T08:00:35;14.60;96.60
35463;DHT22;21578;47.892;9.970;2022-10-16T08:05:22;14.60;96.60
35463;DHT22;21578;47.892;9.970;2022-10-16T08:10:14;14.70;96.60
35463;DHT22;21578;47.892;9.970;2022-10-16T08:15:03;14.90;96.60
35463;DHT22;21578;47.892;9.970;2022-10-16T08:19:52;15.20;96.60
35463;DHT22;21578;47.892;9.970;2022-10-16T08:24:39;15.50;96.60
35463;DHT22;21578;47.892;9.970;2022-10-16T08:29:26;15.80;96.60
35463;DHT22;21578;47.892;9.970;2022-10-16T08:34:12;16.00;96.60
35463;DHT22;21578;47.892;9.970;2022-10-16T08:39:01;16.20;96.60
35463;DHT22;21578;47.892;9.970;2022-10-16T08:44:10;16.20;96.60
35463;DHT22;21578;47.892;9.970;2022-10-16T08:49:03;16.20;96.60
35463;DHT22;21578;47.892;9.970;2022-10-16T08:53:54;16.30;96.60
35463;DHT22;21578;47.892;9.970;2022-10-16T08:58:44;16.40;96.60
35463;DHT22;21578;47.892;9.970;2022-10-16T09:03:52;16.60;96.60
35463;DHT22;21578;47.892;9.970;2022-10-16T09:08:51;16.80;96.60
35463;DHT22;21578;47.892;9.970;2022-10-16T09:13:50;16.90;96.60
35463;DHT22;21578;47.892;9.970;2022-10-16T09:18:43;17.20;96.60
35463;DHT22;21578;47.892;9.970;2022-10-16T09:23:35;17.40;93.90
35463;DHT22;21578;47.892;9.970;2022-10-16T09:28:22;17.90;93.80
35463;DHT22;21578;47.892;9.970;2022-10-16T09:33:12;18.10;90.70
35463;DHT22;21578;47.892;9.970;2022-10-16T09:37:59;18.20;91.20
35463;DHT22;21578;47.892;9.970;2022-10-16T09:42:46;18.20;92.30
35463;DHT22;21578;47.892;9.970;2022-10-16T09:47:39;18.20;91.80
35463;DHT22;21578;47.892;9.970;2022-10-16T09:52:30;18.30;91.20
35463;DHT22;21578;47.892;9.970;2022-10-16T09:57:17;18.40;91.70
35463;DHT22;21578;47.892;9.970;2022-10-16T10:02:11;18.40;91.40
35463;DHT22;21578;47.892;9.970;2022-10-16T10:07:00;18.50;91.00
35463;DHT22;21578;47.892;9.970;2022-10-16T10:11:51;18.60;90.60
35463;DHT22;21578;47.892;9.970;2022-10-16T10:16:39;18.70;90.00
35463;DHT22;21578;47.892;9.970;2022-10-16T10:21:26;18.80;88.00
35463;DHT22;21578;47.892;9.970;2022-10-16T10:26:16;18.80;88.80
35463;DHT22;21578;47.892;9.970;2022-10-16T10:31:10;19.00;88.10
35463;DHT22;21578;47.892;9.970;2022-10-16T10:36:16;19.10;87.00
35463;DHT22;21578;47.892;9.970;2022-10-16T10:41:20;19.20;87.70
35463;DHT22;21578;47.892;9.970;2022-10-16T10:46:20;19.20;88.00
35463;DHT22;21578;47.892;9.970;2022-10-16T10:51:13;19.40;87.00
35463;DHT22;21578;47.892;9.970;2022-10-16T10:56:16;19.60;86.20
35463;DHT22;21578;47.892;9.970;2022-10-16T11:01:08;19.80;86.80
35463;DHT22;21578;47.892;9.970;2022-10-16T11:06:00;20.00;85.80
35463;DHT22;21578;47.892;9.970;2022-10-16T11:10:52;20.20;85.70
35463;DHT22;21578;47.892;9.970;2022-10-16T11:15:40;20.50;84.00
35463;DHT22;21578;47.892;9.970;2022-10-16T11:20:31;20.70;83.90
35463;DHT22;21578;47.892;9.970;2022-10-16T11:25:22;20.60;81.80
35463;DHT22;21578;47.892;9.970;2022-10-16T11:30:14;20.80;81.30
35463;DHT22;21578;47.892;9.970;2022-10-16T11:35:08;20.90;80.30
35463;DHT22;21578;47.892;9.970;2022-10-16T11:40:04;21.10;79.80
35463;DHT22;21578;47.892;9.970;2022-10-16T11:45:03;21.40;76.10
35463;DHT22;21578;47.892;9.970;2022-10-16T11:49:59;21.40;77.00
35463;DHT22;21578;47.892;9.970;2022-10-16T11:54:50;21.50;74.60
35463;DHT22;21578;47.892;9.970;2022-10-16T11:59:43;21.50;74.90
35463;DHT22;21578;47.892;9.970;2022-10-16T12:04:36;21.60;75.30
35463;DHT22;21578;47.892;9.970;2022-10-16T12:09:32;21.80;75.20
35463;DHT22;21578;47.892;9.970;2022-10-16T12:14:37;21.90;74.10
35463;DHT22;21578;47.892;9.970;2022-10-16T12:19:26;22.20;75.50
35463;DHT22;21578;47.892;9.970;2022-10-16T12:24:32;22.30;71.30
35463;DHT22;21578;47.892;9.970;2022-10-16T12:29:30;22.30;70.20
35463;DHT22;21578;47.892;9.970;2022-10-16T12:34:23;22.40;71.20
35463;DHT22;21578;47.892;9.970;2022-10-16T12:39:20;22.50;69.90
35463;DHT22;21578;47.892;9.970;2022-10-16T12:44:23;22.60;71.60
35463;DHT22;21578;47.892;9.970;2022-10-16T12:49:29;22.70;69.10
35463;DHT22;21578;47.892;9.970;2022-10-16T12:54:18;22.90;68.60
35463;DHT22;21578;47.892;9.970;2022-10-16T12:59:13;23.10;68.50
35463;DHT22;21578;47.892;9.970;2022-10-16T13:04:22;23.10;68.00
35463;DHT22;21578;47.892;9.970;2022-10-16T13:09:23;22.80;67.00
35463;DHT22;21578;47.892;9.970;2022-10-16T13:14:36;22.90;67.30
35463;DHT22;21578;47.892;9.970;2022-10-16T13:19:37;23.00;68.70
35463;DHT22;21578;47.892;9.970;2022-10-16T13:24:39;22.90;66.00
35463;DHT22;21578;47.892;9.970;2022-10-16T13:29:30;22.80;66.40
35463;DHT22;21578;47.892;9.970;2022-10-16T13:34:20;22.90;66.70
35463;DHT22;21578;47.892;9.970;2022-10-16T13:39:14;22.80;66.10
35463;DHT22;21578;47.892;9.970;2022-10-16T13:44:02;22.90;69.60
35463;DHT22;21578;47.892;9.970;2022-10-16T13:48:57;23.00;68.00
35463;DHT22;21578;47.892;9.970;2022-10-16T13:53:45;23.10;65.70
35463;DHT22;21578;47.892;9.970;2022-10-16T13:58:33;23.00;66.80
35463;DHT22;21578;47.892;9.970;2022-10-16T14:03:20;22.90;66.00
35463;DHT22;21578;47.892;9.970;2022-10-16T14:08:11;22.80;65.60
35463;DHT22;21578;47.892;9.970;2022-10-16T14:13:00;22.70;66.60
35463;DHT22;21578;47.892;9.970;2022-10-16T14:17:51;22.50;64.90
35463;DHT22;21578;47.892;9.970;2022-10-16T14:22:40;22.50;65.00
35463;DHT22;21578;47.892;9.970;2022-10-16T14:27:30;22.40;66.30
35463;DHT22;21578;47.892;9.970;2022-10-16T14:32:24;22.30;67.80
35463;DHT22;21578;47.892;9.970;2022-10-16T14:37:23;22.20;69.50
35463;DHT22;21578;47.892;9.970;2022-10-16T14:42:14;22.10;72.60
35463;DHT22;21578;47.892;9.970;2022-10-16T14:47:18;22.00;75.30
35463;DHT22;21578;47.892;9.970;2022-10-16T14:52:11;22.00;74.90
35463;DHT22;21578;47.892;9.970;2022-10-16T14:56:59;21.80;73.90
35463;DHT22;21578;47.892;9.970;2022-10-16T15:01:47;21.80;74.40
35463;DHT22;21578;47.892;9.970;2022-10-16T15:06:34;21.70;75.50
35463;DHT22;21578;47.892;9.970;2022-10-16T15:11:21;21.70;76.50
35463;DHT22;21578;47.892;9.970;2022-10-16T15:16:11;21.60;78.00
35463;DHT22;21578;47.892;9.970;2022-10-16T15:20:58;21.40;78.30
35463;DHT22;21578;47.892;9.970;2022-10-16T15:25:47;21.30;79.50
35463;DHT22;21578;47.892;9.970;2022-10-16T15:30:34;21.20;79.90
35463;DHT22;21578;47.892;9.970;2022-10-16T15:35:23;21.00;81.30
35463;DHT22;21578;47.892;9.970;2022-10-16T15:40:10;20.80;82.20
35463;DHT22;21578;47.892;9.970;2022-10-16T15:44:57;20.50;80.90
35463;DHT22;21578;47.892;9.970;2022-10-16T15:49:44;20.50;80.80
35463;DHT22;21578;47.892;9.970;2022-10-16T15:54:32;20.40;81.30
35463;DHT22;21578;47.892;9.970;2022-10-16T15:59:19;20.20;81.90
35463;DHT22;21578;47.892;9.970;2022-10-16T16:04:06;20.10;82.20
35463;DHT22;21578;47.892;9.970;2022-10-16T16:08:53;19.90;83.20
35463;DHT22;21578;47.892;9.970;2022-10-16T16:13:41;19.80;84.00
35463;DHT22;21578;47.892;9.970;2022-10-16T16:18:28;19.60;84.90
35463;DHT22;21578;47.892;9.970;2022-10-16T16:23:15;19.40;85.60
35463;DHT22;21578;47.892;9.970;2022-10-16T16:28:02;19.30;86.30
35463;DHT22;21578;47.892;9.970;2022-10-16T16:32:51;19.00;87.00
35463;DHT22;21578;47.892;9.970;2022-10-16T16:37:38;18.90;86.70
35463;DHT22;21578;47.892;9.970;2022-10-16T16:42:26;18.80;85.30
35463;DHT22;21578;47.892;9.970;2022-10-16T16:47:13;18.50;86.00
35463;DHT22;21578;47.892;9.970;2022-10-16T16:52:02;18.30;86.00
35463;DHT22;21578;47.892;9.970;2022-10-16T16:56:49;18.20;86.00
35463;DHT22;21578;47.892;9.970;2022-10-16T17:01:36;18.10;86.70
35463;DHT22;21578;47.892;9.970;2022-10-16T17:06:26;17.90;87.90
35463;DHT22;21578;47.892;9.970;2022-10-16T17:11:20;17.70;88.50
35463;DHT22;21578;47.892;9.970;2022-10-16T17:16:08;17.60;88.50
35463;DHT22;21578;47.892;9.970;2022-10-16T17:20:58;17.50;88.80
35463;DHT22;21578;47.892;9.970;2022-10-16T17:25:48;17.50;88.60
35463;DHT22;21578;47.892;9.970;2022-10-16T17:30:37;17.40;88.30
35463;DHT22;21578;47.892;9.970;2022-10-16T17:35:24;17.30;89.30
35463;DHT22;21578;47.892;9.970;2022-10-16T17:40:13;17.30;89.40
35463;DHT22;21578;47.892;9.970;2022-10-16T17:45:00;17.30;89.50
35463;DHT22;21578;47.892;9.970;2022-10-16T17:49:58;17.20;90.00
35463;DHT22;21578;47.892;9.970;2022-10-16T17:55:06;17.10;90.50
35463;DHT22;21578;47.892;9.970;2022-10-16T17:59:53;17.00;90.70
35463;DHT22;21578;47.892;9.970;2022-10-16T18:04:41;16.90;91.10
35463;DHT22;21578;47.892;9.970;2022-10-16T18:09:29;16.80;91.50
35463;DHT22;21578;47.892;9.970;2022-10-16T18:14:16;16.80;91.70
35463;DHT22;21578;47.892;9.970;2022-10-16T18:19:03;16.60;92.20
35463;DHT22;21578;47.892;9.970;2022-10-16T18:23:50;16.60;92.30
35463;DHT22;21578;47.892;9.970;2022-10-16T18:28:39;16.50;92.80
35463;DHT22;21578;47.892;9.970;2022-10-16T18:33:27;16.50;92.60
35463;DHT22;21578;47.892;9.970;2022-10-16T18:38:15;16.50;92.40
35463;DHT22;21578;47.892;9.970;2022-10-16T18:43:02;16.30;92.70
35463;DHT22;21578;47.892;9.970;2022-10-16T18:47:50;16.30;92.60
35463;DHT22;21578;47.892;9.970;2022-10-16T18:52:37;16.30;92.70
35463;DHT22;21578;47.892;9.970;2022-10-16T18:57:27;16.30;92.60
35463;DHT22;21578;47.892;9.970;2022-10-16T19:02:14;16.30;92.40
35463;DHT22;21578;47.892;9.970;2022-10-16T19:07:03;16.30;92.50
35463;DHT22;21578;47.892;9.970;2022-10-16T19:11:50;16.20;92.60
35463;DHT22;21578;47.892;9.970;2022-10-16T19:16:37;16.20;92.70
35463;DHT22;21578;47.892;9.970;2022-10-16T19:21:27;16.10;92.80
35463;DHT22;21578;47.892;9.970;2022-10-16T19:26:17;16.10;92.80
35463;DHT22;21578;47.892;9.970;2022-10-16T19:31:06;16.10;93.00
35463;DHT22;21578;47.892;9.970;2022-10-16T19:35:53;16.00;93.00
35463;DHT22;21578;47.892;9.970;2022-10-16T19:40:40;16.00;93.30
35463;DHT22;21578;47.892;9.970;2022-10-16T19:45:31;16.00;93.40
35463;DHT22;21578;47.892;9.970;2022-10-16T19:50:20;15.90;93.70
35463;DHT22;21578;47.892;9.970;2022-10-16T19:55:08;15.80;93.80
35463;DHT22;21578;47.892;9.970;2022-10-16T19:59:55;15.80;93.80
35463;DHT22;21578;47.892;9.970;2022-10-16T20:04:43;15.80;93.70
35463;DHT22;21578;47.892;9.970;2022-10-16T20:09:32;15.80;93.70
35463;DHT22;21578;47.892;9.970;2022-10-16T20:14:19;15.80;93.20
35463;DHT22;21578;47.892;9.970;2022-10-16T20:19:06;15.80;93.20
35463;DHT22;21578;47.892;9.970;2022-10-16T20:23:55;15.80;93.10
35463;DHT22;21578;47.892;9.970;2022-10-16T20:28:43;15.70;93.30
35463;DHT22;21578;47.892;9.970;2022-10-16T20:33:30;15.70;93.30
35463;DHT22;21578;47.892;9.970;2022-10-16T20:38:17;15.80;93.00
35463;DHT22;21578;47.892;9.970;2022-10-16T20:43:06;15.80;92.70
35463;DHT22;21578;47.892;9.970;2022-10-16T20:47:55;15.80;92.80
35463;DHT22;21578;47.892;9.970;2022-10-16T20:52:42;16.00;93.10
35463;DHT22;21578;47.892;9.970;2022-10-16T20:57:29;15.70;94.40
35463;DHT22;21578;47.892;9.970;2022-10-16T21:02:17;15.40;96.20
35463;DHT22;21578;47.892;9.970;2022-10-16T21:07:04;15.20;96.60
35463;DHT22;21578;47.892;9.970;2022-10-16T21:11:51;15.00;96.60
35463;DHT22;21578;47.892;9.970;2022-10-16T21:16:38;14.80;96.60
35463;DHT22;21578;47.892;9.970;2022-10-16T21:21:28;14.70;96.60
35463;DHT22;21578;47.892;9.970;2022-10-16T21:26:16;14.60;96.60
35463;DHT22;21578;47.892;9.970;2022-10-16T21:31:10;14.50;96.60
35463;DHT22;21578;47.892;9.970;2022-10-16T21:35:57;14.50;96.60
35463;DHT22;21578;47.892;9.970;2022-10-16T21:40:47;14.40;96.60
35463;DHT22;21578;47.892;9.970;2022-10-16T21:45:34;14.40;96.60
35463;DHT22;21578;47.892;9.970;2022-10-16T21:50:21;14.30;96.60
35463;DHT22;21578;47.892;9.970;2022-10-16T21:55:08;14.40;96.60
35463;DHT22;21578;47.892;9.970;2022-10-16T21:59:57;14.40;96.60
35463;DHT22;21578;47.892;9.970;2022-10-16T22:04:46;14.40;96.60
35463;DHT22;21578;47.892;9.970;2022-10-16T22:09:33;14.40;96.60
35463;DHT22;21578;47.892;9.970;2022-10-16T22:14:20;14.30;96.60
35463;DHT22;21578;47.892;9.970;2022-10-16T22:19:09;14.30;96.60
35463;DHT22;21578;47.892;9.970;2022-10-16T22:23:57;14.30;96.60
35463;DHT22;21578;47.892;9.970;2022-10-16T22:28:47;14.20;96.60
35463;DHT22;21578;47.892;9.970;2022-10-16T22:33:34;14.20;96.60
35463;DHT22;21578;47.892;9.970;2022-10-16T22:38:22;14.20;96.60
35463;DHT22;21578;47.892;9.970;2022-10-16T22:43:09;14.10;96.60
35463;DHT22;21578;47.892;9.970;2022-10-16T22:47:56;14.10;96.60
35463;DHT22;21578;47.892;9.970;2022-10-16T22:52:43;14.00;96.60
35463;DHT22;21578;47.892;9.970;2022-10-16T22:57:32;14.00;96.60
35463;DHT22;21578;47.892;9.970;2022-10-16T23:02:18;14.00;96.60
35463;DHT22;21578;47.892;9.970;2022-10-16T23:07:05;14.00;96.60
35463;DHT22;21578;47.892;9.970;2022-10-16T23:12:13;13.90;96.60
35463;DHT22;21578;47.892;9.970;2022-10-16T23:17:02;13.90;96.60
35463;DHT22;21578;47.892;9.970;2022-10-16T23:21:48;13.90;96.60
35463;DHT22;21578;47.892;9.970;2022-10-16T23:26:35;13.90;96.60
35463;DHT22;21578;47.892;9.970;2022-10-16T23:31:23;13.80;96.60
35463;DHT22;21578;47.892;9.970;2022-10-16T23:36:13;13.80;96.60
35463;DHT22;21578;47.892;9.970;2022-10-16T23:41:00;13.70;96.60
35463;DHT22;21578;47.892;9.970;2022-10-16T23:45:47;13.60;96.60
35463;DHT22;21578;47.892;9.970;2022-10-16T23:50:34;13.60;96.60
35463;DHT22;21578;47.892;9.970;2022-10-16T23:55:22;13.50;96.60
